createdAt,value
2023-04-08T00:01:28.842Z,7.11
2023-04-08T00:04:14.538Z,7.17
2023-04-08T00:07:00.149Z,7.17
2023-04-08T00:09:45.326Z,7.08
2023-04-08T00:12:30.850Z,7.06
2023-04-08T00:15:16.053Z,7.20
2023-04-08T00:18:02.075Z,7.15
2023-04-08T00:20:47.294Z,7.13
2023-04-08T00:23:32.701Z,7.09
2023-04-08T00:26:18.033Z,6.96
2023-04-08T00:29:03.549Z,6.95
2023-04-08T00:31:48.925Z,6.99
2023-04-08T00:34:34.151Z,7.03
2023-04-08T00:37:19.619Z,6.96
2023-04-08T00:40:05.469Z,6.97
2023-04-08T00:42:51.185Z,6.73
2023-04-08T00:45:36.506Z,6.83
2023-04-08T00:48:22.049Z,6.87
2023-04-08T00:51:07.906Z,6.93
2023-04-08T00:53:53.236Z,7.02
2023-04-08T00:56:38.422Z,6.87
2023-04-08T00:59:23.652Z,6.82
2023-04-08T01:02:21.956Z,6.77
2023-04-08T01:05:09.440Z,6.85
2023-04-08T01:07:55.219Z,6.81
2023-04-08T01:10:42.885Z,6.89
2023-04-08T01:13:29.934Z,6.90
2023-04-08T01:16:16.548Z,6.90
2023-04-08T01:19:02.132Z,6.93
2023-04-08T01:21:47.845Z,6.95
2023-04-08T01:24:36.394Z,6.93
2023-04-08T01:27:21.873Z,6.94
2023-04-08T01:30:08.214Z,6.98
2023-04-08T01:32:55.533Z,7.06
2023-04-08T01:35:41.045Z,7.05
2023-04-08T01:38:27.100Z,7.14
2023-04-08T01:41:12.142Z,7.12
2023-04-08T01:43:57.959Z,7.14
2023-04-08T01:46:43.370Z,7.03
2023-04-08T01:49:29.393Z,6.96
2023-04-08T01:52:16.286Z,6.89
2023-04-08T01:55:01.730Z,6.93
2023-04-08T01:57:51.804Z,6.91
2023-04-08T02:00:38.983Z,6.89
2023-04-08T02:03:25.599Z,6.85
2023-04-08T02:06:11.229Z,6.90
2023-04-08T02:08:56.742Z,6.98
2023-04-08T02:11:41.747Z,6.96
2023-04-08T02:14:28.272Z,6.84
2023-04-08T02:17:18.344Z,6.86
2023-04-08T02:20:07.964Z,6.92
2023-04-08T02:22:57.793Z,7.01
2023-04-08T02:25:44.287Z,7.02
2023-04-08T02:28:30.681Z,6.80
2023-04-08T02:31:17.063Z,6.80
2023-04-08T02:34:02.590Z,6.81
2023-04-08T02:36:48.084Z,6.95
2023-04-08T02:39:33.382Z,7.06
2023-04-08T02:42:18.795Z,7.18
2023-04-08T02:45:04.500Z,7.24
2023-04-08T02:47:49.819Z,7.15
2023-04-08T02:50:35.037Z,7.06
2023-04-08T02:53:20.337Z,7.03
2023-04-08T02:56:05.874Z,7.13
2023-04-08T02:58:52.209Z,7.01
2023-04-08T03:01:37.935Z,6.96
2023-04-08T03:04:23.280Z,6.93
2023-04-08T03:07:08.913Z,6.95
2023-04-08T03:09:55.075Z,6.89
2023-04-08T03:12:40.180Z,7.10
2023-04-08T03:15:25.698Z,7.10
2023-04-08T03:18:11.350Z,7.09
2023-04-08T03:20:57.149Z,7.11
2023-04-08T03:23:42.591Z,7.16
2023-04-08T03:26:29.045Z,7.20
2023-04-08T03:29:14.657Z,7.18
2023-04-08T03:32:00.132Z,7.32
2023-04-08T03:34:45.525Z,7.29
2023-04-08T03:37:30.634Z,7.42
2023-04-08T03:40:16.100Z,7.45
2023-04-08T03:43:01.517Z,7.43
2023-04-08T03:45:46.639Z,7.32
2023-04-08T03:48:32.132Z,7.39
2023-04-08T03:51:17.424Z,7.18
2023-04-08T03:54:02.824Z,7.11
2023-04-08T03:56:49.220Z,7.17
2023-04-08T03:59:34.881Z,6.93
2023-04-08T04:02:20.285Z,6.99
2023-04-08T04:05:05.486Z,7.00
2023-04-08T04:07:50.933Z,7.11
2023-04-08T04:10:36.145Z,6.96
2023-04-08T04:13:21.938Z,6.92
2023-04-08T04:16:07.250Z,6.89
2023-04-08T04:18:53.542Z,6.84
2023-04-08T04:21:39.315Z,6.77
2023-04-08T04:24:24.838Z,6.89
2023-04-08T04:27:10.238Z,7.03
2023-04-08T04:29:55.534Z,7.05
2023-04-08T04:32:40.609Z,7.06
2023-04-08T04:35:26.175Z,7.00
2023-04-08T04:38:12.694Z,7.08
2023-04-08T04:40:59.045Z,7.13
2023-04-08T04:43:44.254Z,7.10
2023-04-08T04:46:29.714Z,7.12
2023-04-08T04:49:15.115Z,7.25
2023-04-08T04:52:00.684Z,7.31
2023-04-08T04:54:45.949Z,7.30
2023-04-08T04:57:31.296Z,7.13
2023-04-08T05:00:17.899Z,7.13
2023-04-08T05:03:03.452Z,7.23
2023-04-08T05:05:54.923Z,7.28
2023-04-08T05:08:40.377Z,7.33
2023-04-08T05:11:26.028Z,7.41
2023-04-08T05:14:11.099Z,7.46
2023-04-08T05:16:56.532Z,7.44
2023-04-08T05:19:41.850Z,7.42
2023-04-08T05:22:27.302Z,7.11
2023-04-08T05:25:12.721Z,7.04
2023-04-08T05:27:58.498Z,7.14
2023-04-08T05:30:48.250Z,6.86
2023-04-08T05:33:33.292Z,6.99
2023-04-08T05:36:18.517Z,6.96
2023-04-08T05:39:03.887Z,7.08
2023-04-08T05:41:49.357Z,7.13
2023-04-08T05:44:34.382Z,7.31
2023-04-08T05:47:19.852Z,7.16
2023-04-08T05:50:05.495Z,7.12
2023-04-08T05:52:50.761Z,7.17
2023-04-08T05:55:35.993Z,7.17
2023-04-08T05:58:21.262Z,7.37
2023-04-08T06:01:07.255Z,7.37
2023-04-08T06:06:39.134Z,7.31
2023-04-08T06:09:24.366Z,7.39
2023-04-08T06:12:09.694Z,7.39
2023-04-08T06:14:56.152Z,7.44
2023-04-08T06:17:41.521Z,7.63
2023-04-08T06:20:27.248Z,7.56
2023-04-08T06:23:12.938Z,7.59
2023-04-08T06:25:58.661Z,7.71
2023-04-08T06:28:43.988Z,7.67
2023-04-08T06:31:29.434Z,7.62
2023-04-08T06:34:14.690Z,7.69
2023-04-08T06:36:59.905Z,7.68
2023-04-08T06:39:45.430Z,7.56
2023-04-08T06:42:30.468Z,7.40
2023-04-08T06:45:15.862Z,7.29
2023-04-08T06:48:01.447Z,7.37
2023-04-08T06:50:46.693Z,7.45
2023-04-08T06:53:33.242Z,7.49
2023-04-08T06:56:18.778Z,7.56
2023-04-08T06:59:07.014Z,7.67
2023-04-08T07:01:52.048Z,7.72
2023-04-08T07:04:37.716Z,7.62
2023-04-08T07:07:24.202Z,7.76
2023-04-08T07:10:10.910Z,7.76
2023-04-08T07:12:56.721Z,7.79
2023-04-08T07:15:41.962Z,7.87
2023-04-08T07:18:27.443Z,7.90
2023-04-08T07:21:12.989Z,7.95
2023-04-08T07:23:58.262Z,7.96
2023-04-08T07:26:43.412Z,8.04
2023-04-08T07:29:28.684Z,7.87
2023-04-08T07:32:14.135Z,7.72
2023-04-08T07:35:00.237Z,7.45
2023-04-08T07:37:45.587Z,7.43
2023-04-08T07:40:31.214Z,7.64
2023-04-08T07:43:16.341Z,7.74
2023-04-08T07:46:05.065Z,7.59
2023-04-08T07:48:50.867Z,7.61
2023-04-08T07:51:36.517Z,7.52
2023-04-08T07:54:21.956Z,7.60
2023-04-08T07:57:07.377Z,7.56
2023-04-08T07:59:53.048Z,7.57
2023-04-08T08:02:38.387Z,7.73
2023-04-08T08:05:23.826Z,8.04
2023-04-08T08:08:11.623Z,7.93
2023-04-08T08:10:57.185Z,8.12
2023-04-08T08:13:42.687Z,8.12
2023-04-08T08:16:28.771Z,8.22
2023-04-08T08:19:14.464Z,8.19
2023-04-08T08:21:59.859Z,8.29
2023-04-08T08:24:44.971Z,8.43
2023-04-08T08:27:30.629Z,8.41
2023-04-08T08:30:16.154Z,8.55
2023-04-08T08:33:01.214Z,8.64
2023-04-08T08:35:46.600Z,8.76
2023-04-08T08:38:31.738Z,8.58
2023-04-08T08:41:17.116Z,8.47
2023-04-08T08:44:03.549Z,8.27
2023-04-08T08:46:48.731Z,8.35
2023-04-08T08:49:34.156Z,8.36
2023-04-08T08:52:19.475Z,8.44
2023-04-08T08:55:21.554Z,8.48
2023-04-08T08:58:10.488Z,8.44
2023-04-08T09:00:55.917Z,8.44
2023-04-08T09:03:41.369Z,8.60
2023-04-08T09:06:27.576Z,8.83
2023-04-08T09:09:13.292Z,8.76
2023-04-08T09:12:04.937Z,8.87
2023-04-08T09:14:51.052Z,8.86
2023-04-08T09:17:37.746Z,8.90
2023-04-08T09:20:23.933Z,9.03
2023-04-08T09:23:09.386Z,9.29
2023-04-08T09:26:01.256Z,9.13
2023-04-08T09:29:18.375Z,9.05
2023-04-08T09:32:10.161Z,9.08
2023-04-08T09:34:56.231Z,9.05
2023-04-08T09:37:41.510Z,9.03
2023-04-08T09:40:27.350Z,8.81
2023-04-08T09:43:13.463Z,8.81
2023-04-08T09:46:02.480Z,9.03
2023-04-08T09:48:54.982Z,9.16
2023-04-08T09:51:53.385Z,9.29
2023-04-08T09:54:49.158Z,9.28
2023-04-08T09:57:43.802Z,9.44
2023-04-08T10:00:32.177Z,9.44
2023-04-08T10:03:43.720Z,9.57
2023-04-08T10:06:31.331Z,9.55
2023-04-08T10:09:16.941Z,9.62
2023-04-08T10:12:03.382Z,9.70
2023-04-08T10:15:07.742Z,9.72
2023-04-08T10:17:56.785Z,9.81
2023-04-08T10:20:42.620Z,9.71
2023-04-08T10:23:48.088Z,9.52
2023-04-08T10:26:34.632Z,9.68
2023-04-08T10:29:29.117Z,9.65
2023-04-08T10:32:30.078Z,9.80
2023-04-08T10:35:16.323Z,10.05
2023-04-08T10:38:01.616Z,9.99
2023-04-08T10:40:47.637Z,9.96
2023-04-08T10:43:33.603Z,9.97
2023-04-08T10:46:18.845Z,9.69
2023-04-08T10:49:04.269Z,9.51
2023-04-08T10:51:49.616Z,9.78
2023-04-08T10:54:34.754Z,9.96
2023-04-08T10:57:26.192Z,9.62
2023-04-08T11:00:12.072Z,9.64
2023-04-08T11:03:00.884Z,9.79
2023-04-08T11:05:46.893Z,9.90
2023-04-08T11:08:32.951Z,9.82
2023-04-08T11:11:19.097Z,9.92
2023-04-08T11:14:05.652Z,10.07
2023-04-08T11:16:51.597Z,10.13
2023-04-08T11:19:37.086Z,10.14
2023-04-08T11:22:22.743Z,10.01
2023-04-08T11:25:10.044Z,10.08
2023-04-08T11:27:55.671Z,10.06
2023-04-08T11:30:41.931Z,9.98
2023-04-08T11:33:30.259Z,10.33
2023-04-08T11:36:17.837Z,10.26
2023-04-08T11:39:09.453Z,10.68
2023-04-08T11:41:55.333Z,10.70
2023-04-08T11:44:40.590Z,10.78
2023-04-08T11:47:33.362Z,10.55
2023-04-08T11:50:25.483Z,10.72
2023-04-08T11:53:24.961Z,10.81
2023-04-08T11:56:17.384Z,11.02
2023-04-08T11:59:02.493Z,11.38
2023-04-08T12:01:47.753Z,11.46
2023-04-08T12:04:34.105Z,11.58
2023-04-08T12:07:19.618Z,11.35
2023-04-08T12:10:05.719Z,11.18
2023-04-08T12:12:51.265Z,11.12
2023-04-08T12:15:36.419Z,11.07
2023-04-08T12:18:22.715Z,10.90
2023-04-08T12:21:07.724Z,10.84
2023-04-08T12:23:53.556Z,10.91
2023-04-08T12:26:38.792Z,10.94
2023-04-08T12:29:24.142Z,10.74
2023-04-08T12:32:09.615Z,10.75
2023-04-08T12:34:55.839Z,10.65
2023-04-08T12:37:41.355Z,10.36
2023-04-08T12:40:26.638Z,10.52
2023-04-08T12:43:11.756Z,10.67
2023-04-08T12:45:57.045Z,10.72
2023-04-08T12:48:42.469Z,10.57
2023-04-08T12:51:29.380Z,10.65
2023-04-08T12:54:14.742Z,10.63
2023-04-08T12:57:01.434Z,10.63
2023-04-08T12:59:47.568Z,10.57
2023-04-08T13:02:32.979Z,10.52
2023-04-08T13:05:19.766Z,10.40
2023-04-08T13:08:06.960Z,10.36
2023-04-08T13:10:52.282Z,10.20
2023-04-08T13:13:37.693Z,10.47
2023-04-08T13:16:22.896Z,10.72
2023-04-08T13:19:08.145Z,10.65
2023-04-08T13:21:53.560Z,10.53
2023-04-08T13:24:38.532Z,10.56
2023-04-08T13:27:23.942Z,10.80
2023-04-08T13:30:09.623Z,11.09
2023-04-08T13:32:54.980Z,11.47
2023-04-08T13:35:40.233Z,11.76
2023-04-08T13:38:25.696Z,11.99
2023-04-08T13:41:11.016Z,12.07
2023-04-08T13:43:56.722Z,11.77
2023-04-08T13:46:42.268Z,11.82
2023-04-08T13:49:27.694Z,11.79
2023-04-08T13:52:13.087Z,11.68
2023-04-08T13:54:58.425Z,11.27
2023-04-08T13:57:43.435Z,11.34
2023-04-08T14:00:28.871Z,11.29
2023-04-08T14:03:14.212Z,10.91
2023-04-08T14:06:01.536Z,11.00
2023-04-08T14:08:47.486Z,10.99
2023-04-08T14:11:32.705Z,11.01
2023-04-08T14:14:18.090Z,11.19
2023-04-08T14:17:03.472Z,11.06
2023-04-08T14:19:48.705Z,11.03
2023-04-08T14:22:33.951Z,11.07
2023-04-08T14:25:19.377Z,11.14
2023-04-08T14:28:04.926Z,11.28
2023-04-08T14:30:50.263Z,11.27
2023-04-08T14:33:35.971Z,11.12
2023-04-08T14:36:21.390Z,11.33
2023-04-08T14:39:06.616Z,11.24
2023-04-08T14:41:52.101Z,10.98
2023-04-08T14:44:37.007Z,10.74
2023-04-08T14:47:22.345Z,10.67
2023-04-08T14:50:07.990Z,10.58
2023-04-08T14:52:53.130Z,10.59
2023-04-08T14:55:38.686Z,10.59
2023-04-08T14:58:23.747Z,10.53
2023-04-08T15:01:09.220Z,10.73
2023-04-08T15:03:54.728Z,10.65
2023-04-08T15:06:40.383Z,10.61
2023-04-08T15:09:25.876Z,10.48
2023-04-08T15:12:13.152Z,10.52
2023-04-08T15:14:58.846Z,10.58
2023-04-08T15:17:43.925Z,10.67
2023-04-08T15:20:29.290Z,10.72
2023-04-08T15:23:14.833Z,10.61
2023-04-08T15:26:00.009Z,10.40
2023-04-08T15:28:45.032Z,10.36
2023-04-08T15:31:31.372Z,10.32
2023-04-08T15:34:16.818Z,10.16
2023-04-08T15:37:02.315Z,10.31
2023-04-08T15:39:47.438Z,10.34
2023-04-08T15:42:33.048Z,10.39
2023-04-08T15:45:18.376Z,10.25
2023-04-08T15:48:04.367Z,10.49
2023-04-08T15:50:49.825Z,10.58
2023-04-08T15:53:35.359Z,10.44
2023-04-08T15:56:20.809Z,10.37
2023-04-08T15:59:06.085Z,10.31
2023-04-08T16:01:51.294Z,10.45
2023-04-08T16:04:36.605Z,10.46
2023-04-08T16:07:22.017Z,10.42
2023-04-08T16:10:07.689Z,10.42
2023-04-08T16:12:53.055Z,10.34
2023-04-08T16:15:38.450Z,10.14
2023-04-08T16:18:24.392Z,10.17
2023-04-08T16:21:10.109Z,10.19
2023-04-08T16:23:55.454Z,10.19
2023-04-08T16:26:40.887Z,9.98
2023-04-08T16:29:27.194Z,9.90
2023-04-08T16:32:12.413Z,9.74
2023-04-08T16:34:57.935Z,9.81
2023-04-08T16:37:43.068Z,9.77
2023-04-08T16:40:32.952Z,9.72
2023-04-08T16:43:18.409Z,9.78
2023-04-08T16:46:15.117Z,9.61
2023-04-08T16:49:01.267Z,9.69
2023-04-08T16:51:46.437Z,9.64
2023-04-08T16:54:32.116Z,9.49
2023-04-08T16:57:17.186Z,9.50
2023-04-08T17:00:02.493Z,9.59
2023-04-08T17:02:47.852Z,9.57
2023-04-08T17:05:33.392Z,9.45
2023-04-08T17:08:19.245Z,9.46
2023-04-08T17:11:05.287Z,9.55
2023-04-08T17:13:51.102Z,9.42
2023-04-08T17:16:36.628Z,9.25
2023-04-08T17:19:21.841Z,9.30
2023-04-08T17:22:07.405Z,9.21
2023-04-08T17:24:52.888Z,9.21
2023-04-08T17:27:37.869Z,9.26
2023-04-08T17:30:23.347Z,9.28
2023-04-08T17:33:08.999Z,9.38
2023-04-08T17:35:54.836Z,9.41
2023-04-08T17:38:40.044Z,9.29
2023-04-08T17:41:39.018Z,9.34
2023-04-08T17:44:29.897Z,9.32
2023-04-08T17:47:15.464Z,9.33
2023-04-08T17:50:00.861Z,9.28
2023-04-08T17:52:46.364Z,9.31
2023-04-08T17:55:31.454Z,9.35
2023-04-08T17:58:16.987Z,9.40
2023-04-08T18:01:02.673Z,9.40
2023-04-08T18:03:49.747Z,9.30
2023-04-08T18:06:34.987Z,9.08
2023-04-08T18:09:20.438Z,9.05
2023-04-08T18:12:06.643Z,8.99
2023-04-08T18:14:51.971Z,9.04
2023-04-08T18:17:37.109Z,9.02
2023-04-08T18:20:22.564Z,8.89
2023-04-08T18:23:07.902Z,8.87
2023-04-08T18:25:53.337Z,8.94
2023-04-08T18:28:38.486Z,9.06
2023-04-08T18:31:24.325Z,9.07
2023-04-08T18:34:09.591Z,9.11
2023-04-08T18:36:54.909Z,9.10
2023-04-08T18:39:40.863Z,9.06
2023-04-08T18:42:25.995Z,9.08
2023-04-08T18:45:11.312Z,9.04
2023-04-08T18:47:56.942Z,9.05
2023-04-08T18:50:42.303Z,9.03
2023-04-08T18:53:28.513Z,8.86
2023-04-08T18:56:14.303Z,8.83
2023-04-08T18:58:59.481Z,8.76
2023-04-08T19:01:44.849Z,8.76
2023-04-08T19:04:30.072Z,8.71
2023-04-08T19:07:16.985Z,8.74
2023-04-08T19:10:02.360Z,8.76
2023-04-08T19:12:48.041Z,8.85
2023-04-08T19:15:33.335Z,8.89
2023-04-08T19:18:18.688Z,8.93
2023-04-08T19:21:04.092Z,8.92
2023-04-08T19:23:49.722Z,8.84
2023-04-08T19:26:36.058Z,8.91
2023-04-08T19:29:23.242Z,8.92
2023-04-08T19:32:08.649Z,8.83
2023-04-08T19:34:53.960Z,8.79
2023-04-08T19:37:39.294Z,8.78
2023-04-08T19:40:24.697Z,8.84
2023-04-08T19:43:10.138Z,8.88
2023-04-08T19:45:55.612Z,8.81
2023-04-08T19:48:40.815Z,8.94
2023-04-08T19:51:27.329Z,8.91
2023-04-08T19:54:12.860Z,8.97
2023-04-08T19:56:58.481Z,8.94
2023-04-08T19:59:44.048Z,9.03
2023-04-08T20:02:29.581Z,8.91
2023-04-08T20:05:16.433Z,8.90
2023-04-08T20:08:01.872Z,8.91
2023-04-08T20:10:48.972Z,8.94
2023-04-08T20:13:34.124Z,8.83
2023-04-08T20:16:19.735Z,8.96
2023-04-08T20:19:05.198Z,8.82
2023-04-08T20:21:50.458Z,8.79
2023-04-08T20:24:36.588Z,8.75
2023-04-08T20:27:21.605Z,8.81
2023-04-08T20:30:07.513Z,8.87
2023-04-08T20:32:53.036Z,8.88
2023-04-08T20:35:38.268Z,8.77
2023-04-08T20:38:24.759Z,8.71
2023-04-08T20:41:09.871Z,8.66
2023-04-08T20:43:55.972Z,8.67
2023-04-08T20:46:42.381Z,8.76
2023-04-08T20:49:27.439Z,8.89
2023-04-08T20:52:12.792Z,8.84
2023-04-08T20:54:58.267Z,8.81
2023-04-08T20:57:44.250Z,8.72
2023-04-08T21:00:29.520Z,8.68
2023-04-08T21:03:15.049Z,8.77
2023-04-08T21:06:00.611Z,8.68
2023-04-08T21:08:46.298Z,8.74
2023-04-08T21:11:31.381Z,8.83
2023-04-08T21:14:16.898Z,8.81
2023-04-08T21:17:02.219Z,8.75
2023-04-08T21:19:47.403Z,8.67
2023-04-08T21:22:32.792Z,8.80
2023-04-08T21:25:18.401Z,8.65
2023-04-08T21:28:03.730Z,8.58
2023-04-08T21:30:49.274Z,8.53
2023-04-08T21:33:34.680Z,8.68
2023-04-08T21:36:20.341Z,8.72
2023-04-08T21:39:06.157Z,8.82
2023-04-08T21:41:52.049Z,8.68
2023-04-08T21:44:37.214Z,8.62
2023-04-08T21:47:22.737Z,8.47
2023-04-08T21:50:08.288Z,8.55
2023-04-08T21:52:53.812Z,8.69
2023-04-08T21:55:38.962Z,8.53
2023-04-08T21:58:24.352Z,8.63
2023-04-08T22:01:10.053Z,8.75
2023-04-08T22:03:56.186Z,8.63
2023-04-08T22:06:41.634Z,8.51
2023-04-08T22:09:27.581Z,8.58
2023-04-08T22:12:12.862Z,8.54
2023-04-08T22:14:58.330Z,8.59
2023-04-08T22:17:43.476Z,8.55
2023-04-08T22:20:29.016Z,8.51
2023-04-08T22:23:14.385Z,8.61
2023-04-08T22:25:59.845Z,8.50
2023-04-08T22:28:45.008Z,8.44
2023-04-08T22:31:30.488Z,8.53
2023-04-08T22:34:16.090Z,8.51
2023-04-08T22:37:01.471Z,8.51
2023-04-08T22:39:46.537Z,8.68
2023-04-08T22:42:31.760Z,8.71
2023-04-08T22:45:17.204Z,8.84
2023-04-08T22:48:02.732Z,8.79
2023-04-08T22:50:48.055Z,8.84
2023-04-08T22:53:33.371Z,8.83
2023-04-08T22:56:18.796Z,8.75
2023-04-08T22:59:04.181Z,8.67
2023-04-08T23:01:49.731Z,8.59
2023-04-08T23:04:34.935Z,8.54
2023-04-08T23:07:20.338Z,8.52
2023-04-08T23:10:06.198Z,8.33
2023-04-08T23:12:51.709Z,8.47
2023-04-08T23:15:36.871Z,8.59
2023-04-08T23:18:22.341Z,8.65
2023-04-08T23:21:07.800Z,8.68
2023-04-08T23:23:53.061Z,8.67
2023-04-08T23:26:38.156Z,8.62
2023-04-08T23:29:23.468Z,8.59
2023-04-08T23:32:08.931Z,8.59
2023-04-08T23:34:54.435Z,8.56
2023-04-08T23:37:39.662Z,8.44
2023-04-08T23:40:24.754Z,8.47
2023-04-08T23:43:10.179Z,8.31
2023-04-08T23:45:55.709Z,8.25
2023-04-08T23:48:40.970Z,8.27
2023-04-08T23:51:27.902Z,8.18
2023-04-08T23:54:13.348Z,8.23
2023-04-08T23:56:58.849Z,8.39
2023-04-08T23:59:43.976Z,8.51
